sensor_id;sensor_type;location;lat;lon;timestamp;P1;durP1;ratioP1;P2;durP2;ratioP2
55483;SDS011;41345;51.704;5.146;2023-05-20T00:04:29;11.97;;;7.40;;
55483;SDS011;41345;51.704;5.146;2023-05-20T00:09:29;12.63;;;8.10;;
55483;SDS011;41345;51.704;5.146;2023-05-20T00:14:30;12.07;;;9.05;;
55483;SDS011;41345;51.704;5.146;2023-05-20T00:19:30;11.27;;;7.78;;
55483;SDS011;41345;51.704;5.146;2023-05-20T00:24:30;12.73;;;9.07;;
55483;SDS011;41345;51.704;5.146;2023-05-20T00:29:31;14.98;;;10.43;;
55483;SDS011;41345;51.704;5.146;2023-05-20T00:34:32;15.38;;;12.30;;
55483;SDS011;41345;51.704;5.146;2023-05-20T00:39:32;16.40;;;12.32;;
55483;SDS011;41345;51.704;5.146;2023-05-20T00:44:33;13.85;;;11.50;;
55483;SDS011;41345;51.704;5.146;2023-05-20T00:49:33;12.37;;;11.17;;
55483;SDS011;41345;51.704;5.146;2023-05-20T00:54:33;16.02;;;11.35;;
55483;SDS011;41345;51.704;5.146;2023-05-20T00:59:35;17.07;;;11.30;;
55483;SDS011;41345;51.704;5.146;2023-05-20T01:04:35;14.00;;;11.75;;
55483;SDS011;41345;51.704;5.146;2023-05-20T01:09:35;14.07;;;12.63;;
55483;SDS011;41345;51.704;5.146;2023-05-20T01:14:36;14.02;;;11.02;;
55483;SDS011;41345;51.704;5.146;2023-05-20T01:19:42;14.38;;;12.77;;
55483;SDS011;41345;51.704;5.146;2023-05-20T01:24:45;21.40;;;18.23;;
55483;SDS011;41345;51.704;5.146;2023-05-20T01:29:47;18.92;;;17.08;;
55483;SDS011;41345;51.704;5.146;2023-05-20T01:34:50;15.32;;;13.73;;
55483;SDS011;41345;51.704;5.146;2023-05-20T01:39:51;17.80;;;14.10;;
55483;SDS011;41345;51.704;5.146;2023-05-20T01:44:52;14.55;;;13.25;;
55483;SDS011;41345;51.704;5.146;2023-05-20T01:49:52;23.35;;;21.45;;
55483;SDS011;41345;51.704;5.146;2023-05-20T01:54:53;19.50;;;17.50;;
55483;SDS011;41345;51.704;5.146;2023-05-20T01:59:53;20.40;;;18.67;;
55483;SDS011;41345;51.704;5.146;2023-05-20T02:04:53;20.95;;;19.17;;
55483;SDS011;41345;51.704;5.146;2023-05-20T02:09:54;24.73;;;22.38;;
55483;SDS011;41345;51.704;5.146;2023-05-20T02:14:54;25.05;;;22.73;;
55483;SDS011;41345;51.704;5.146;2023-05-20T02:19:55;25.50;;;23.23;;
55483;SDS011;41345;51.704;5.146;2023-05-20T02:24:55;33.90;;;31.35;;
55483;SDS011;41345;51.704;5.146;2023-05-20T02:29:55;26.23;;;23.70;;
55483;SDS011;41345;51.704;5.146;2023-05-20T02:34:56;29.45;;;27.48;;
55483;SDS011;41345;51.704;5.146;2023-05-20T02:39:56;28.45;;;26.23;;
55483;SDS011;41345;51.704;5.146;2023-05-20T02:44:56;28.48;;;26.23;;
55483;SDS011;41345;51.704;5.146;2023-05-20T02:49:57;33.65;;;31.42;;
55483;SDS011;41345;51.704;5.146;2023-05-20T02:54:58;26.60;;;24.45;;
55483;SDS011;41345;51.704;5.146;2023-05-20T02:59:58;30.33;;;28.17;;
55483;SDS011;41345;51.704;5.146;2023-05-20T03:04:58;44.60;;;41.67;;
55483;SDS011;41345;51.704;5.146;2023-05-20T03:09:59;36.05;;;33.53;;
55483;SDS011;41345;51.704;5.146;2023-05-20T03:14:59;46.47;;;43.30;;
55483;SDS011;41345;51.704;5.146;2023-05-20T03:20:00;34.90;;;32.67;;
55483;SDS011;41345;51.704;5.146;2023-05-20T03:25:00;35.55;;;33.17;;
55483;SDS011;41345;51.704;5.146;2023-05-20T03:30:01;41.40;;;38.55;;
55483;SDS011;41345;51.704;5.146;2023-05-20T03:35:02;39.63;;;37.17;;
55483;SDS011;41345;51.704;5.146;2023-05-20T03:40:03;42.15;;;39.20;;
55483;SDS011;41345;51.704;5.146;2023-05-20T03:45:06;38.05;;;35.28;;
55483;SDS011;41345;51.704;5.146;2023-05-20T03:50:06;44.25;;;41.00;;
55483;SDS011;41345;51.704;5.146;2023-05-20T03:55:07;58.57;;;55.07;;
55483;SDS011;41345;51.704;5.146;2023-05-20T04:00:07;43.25;;;40.05;;
55483;SDS011;41345;51.704;5.146;2023-05-20T04:05:13;47.85;;;44.20;;
55483;SDS011;41345;51.704;5.146;2023-05-20T04:10:13;48.38;;;45.28;;
55483;SDS011;41345;51.704;5.146;2023-05-20T04:15:14;50.17;;;47.23;;
55483;SDS011;41345;51.704;5.146;2023-05-20T04:20:14;65.05;;;61.63;;
55483;SDS011;41345;51.704;5.146;2023-05-20T04:25:14;54.75;;;51.85;;
55483;SDS011;41345;51.704;5.146;2023-05-20T04:30:15;69.18;;;65.45;;
55483;SDS011;41345;51.704;5.146;2023-05-20T04:35:17;60.13;;;56.67;;
55483;SDS011;41345;51.704;5.146;2023-05-20T04:40:17;72.28;;;68.18;;
55483;SDS011;41345;51.704;5.146;2023-05-20T04:45:18;56.95;;;53.65;;
55483;SDS011;41345;51.704;5.146;2023-05-20T04:50:19;58.15;;;54.85;;
55483;SDS011;41345;51.704;5.146;2023-05-20T04:55:20;66.05;;;62.03;;
55483;SDS011;41345;51.704;5.146;2023-05-20T05:00:23;50.22;;;47.28;;
55483;SDS011;41345;51.704;5.146;2023-05-20T05:05:24;56.60;;;53.05;;
55483;SDS011;41345;51.704;5.146;2023-05-20T05:10:24;52.17;;;49.17;;
55483;SDS011;41345;51.704;5.146;2023-05-20T05:15:25;37.67;;;35.37;;
55483;SDS011;41345;51.704;5.146;2023-05-20T05:20:26;35.25;;;32.97;;
55483;SDS011;41345;51.704;5.146;2023-05-20T05:25:27;28.17;;;26.00;;
55483;SDS011;41345;51.704;5.146;2023-05-20T05:30:27;22.77;;;20.90;;
55483;SDS011;41345;51.704;5.146;2023-05-20T05:35:27;18.35;;;16.30;;
55483;SDS011;41345;51.704;5.146;2023-05-20T05:40:28;15.73;;;10.45;;
55483;SDS011;41345;51.704;5.146;2023-05-20T05:45:28;12.20;;;10.55;;
55483;SDS011;41345;51.704;5.146;2023-05-20T05:50:28;14.30;;;9.70;;
55483;SDS011;41345;51.704;5.146;2023-05-20T05:55:29;17.27;;;10.00;;
55483;SDS011;41345;51.704;5.146;2023-05-20T06:00:29;13.85;;;11.02;;
55483;SDS011;41345;51.704;5.146;2023-05-20T06:05:30;12.65;;;8.00;;
55483;SDS011;41345;51.704;5.146;2023-05-20T06:10:30;11.43;;;9.75;;
55483;SDS011;41345;51.704;5.146;2023-05-20T06:15:30;16.67;;;9.63;;
55483;SDS011;41345;51.704;5.146;2023-05-20T06:20:31;12.87;;;10.83;;
55483;SDS011;41345;51.704;5.146;2023-05-20T06:25:31;13.03;;;11.67;;
55483;SDS011;41345;51.704;5.146;2023-05-20T06:30:31;12.13;;;6.53;;
55483;SDS011;41345;51.704;5.146;2023-05-20T06:35:32;15.30;;;6.43;;
55483;SDS011;41345;51.704;5.146;2023-05-20T06:40:35;8.80;;;6.28;;
55483;SDS011;41345;51.704;5.146;2023-05-20T06:45:36;11.20;;;6.28;;
55483;SDS011;41345;51.704;5.146;2023-05-20T06:50:36;12.50;;;6.27;;
55483;SDS011;41345;51.704;5.146;2023-05-20T06:55:39;10.30;;;8.30;;
55483;SDS011;41345;51.704;5.146;2023-05-20T07:00:39;15.90;;;6.25;;
55483;SDS011;41345;51.704;5.146;2023-05-20T07:05:40;8.90;;;6.72;;
55483;SDS011;41345;51.704;5.146;2023-05-20T07:10:40;10.30;;;5.93;;
55483;SDS011;41345;51.704;5.146;2023-05-20T07:15:41;13.70;;;6.78;;
55483;SDS011;41345;51.704;5.146;2023-05-20T07:20:41;9.48;;;4.50;;
55483;SDS011;41345;51.704;5.146;2023-05-20T07:25:41;9.25;;;5.22;;
55483;SDS011;41345;51.704;5.146;2023-05-20T07:30:42;11.65;;;5.07;;
55483;SDS011;41345;51.704;5.146;2023-05-20T07:35:48;9.32;;;4.40;;
55483;SDS011;41345;51.704;5.146;2023-05-20T07:40:49;9.13;;;4.40;;
55483;SDS011;41345;51.704;5.146;2023-05-20T07:45:49;7.88;;;3.85;;
55483;SDS011;41345;51.704;5.146;2023-05-20T07:50:49;10.57;;;4.03;;
55483;SDS011;41345;51.704;5.146;2023-05-20T07:55:50;7.40;;;3.38;;
55483;SDS011;41345;51.704;5.146;2023-05-20T08:00:50;11.23;;;4.20;;
55483;SDS011;41345;51.704;5.146;2023-05-20T08:05:50;9.93;;;3.63;;
55483;SDS011;41345;51.704;5.146;2023-05-20T08:10:51;8.30;;;3.20;;
55483;SDS011;41345;51.704;5.146;2023-05-20T08:15:54;8.82;;;2.90;;
55483;SDS011;41345;51.704;5.146;2023-05-20T08:20:55;7.47;;;2.80;;
55483;SDS011;41345;51.704;5.146;2023-05-20T08:25:55;6.10;;;2.50;;
55483;SDS011;41345;51.704;5.146;2023-05-20T08:30:56;6.70;;;2.90;;
55483;SDS011;41345;51.704;5.146;2023-05-20T08:35:59;5.95;;;2.67;;
55483;SDS011;41345;51.704;5.146;2023-05-20T08:41:00;4.82;;;2.60;;
55483;SDS011;41345;51.704;5.146;2023-05-20T08:46:00;9.80;;;2.90;;
55483;SDS011;41345;51.704;5.146;2023-05-20T08:51:05;7.90;;;2.90;;
55483;SDS011;41345;51.704;5.146;2023-05-20T08:56:08;8.13;;;2.83;;
55483;SDS011;41345;51.704;5.146;2023-05-20T09:01:08;8.00;;;2.22;;
55483;SDS011;41345;51.704;5.146;2023-05-20T09:06:09;9.55;;;3.03;;
55483;SDS011;41345;51.704;5.146;2023-05-20T09:11:10;8.88;;;2.47;;
55483;SDS011;41345;51.704;5.146;2023-05-20T09:16:10;7.32;;;2.30;;
55483;SDS011;41345;51.704;5.146;2023-05-20T09:21:11;7.63;;;2.28;;
55483;SDS011;41345;51.704;5.146;2023-05-20T09:26:11;6.57;;;2.10;;
55483;SDS011;41345;51.704;5.146;2023-05-20T09:31:14;7.75;;;2.30;;
55483;SDS011;41345;51.704;5.146;2023-05-20T09:36:15;8.50;;;2.07;;
55483;SDS011;41345;51.704;5.146;2023-05-20T09:41:15;5.32;;;2.22;;
55483;SDS011;41345;51.704;5.146;2023-05-20T09:46:16;5.63;;;2.65;;
55483;SDS011;41345;51.704;5.146;2023-05-20T09:51:16;9.73;;;2.80;;
55483;SDS011;41345;51.704;5.146;2023-05-20T09:56:17;8.43;;;2.65;;
55483;SDS011;41345;51.704;5.146;2023-05-20T10:01:19;5.78;;;2.70;;
55483;SDS011;41345;51.704;5.146;2023-05-20T10:11:34;7.30;;;2.70;;
55483;SDS011;41345;51.704;5.146;2023-05-20T10:16:42;7.68;;;2.38;;
55483;SDS011;41345;51.704;5.146;2023-05-20T10:21:43;6.95;;;2.83;;
55483;SDS011;41345;51.704;5.146;2023-05-20T10:26:43;9.20;;;2.60;;
55483;SDS011;41345;51.704;5.146;2023-05-20T10:31:53;6.75;;;2.67;;
55483;SDS011;41345;51.704;5.146;2023-05-20T10:42:04;5.45;;;2.53;;
55483;SDS011;41345;51.704;5.146;2023-05-20T10:47:05;5.38;;;2.20;;
55483;SDS011;41345;51.704;5.146;2023-05-20T10:52:07;5.97;;;2.37;;
55483;SDS011;41345;51.704;5.146;2023-05-20T10:57:07;7.25;;;2.65;;
55483;SDS011;41345;51.704;5.146;2023-05-20T11:02:10;7.00;;;2.50;;
55483;SDS011;41345;51.704;5.146;2023-05-20T11:07:12;6.22;;;2.65;;
55483;SDS011;41345;51.704;5.146;2023-05-20T11:12:12;7.70;;;2.47;;
55483;SDS011;41345;51.704;5.146;2023-05-20T11:17:12;7.03;;;2.30;;
55483;SDS011;41345;51.704;5.146;2023-05-20T11:22:13;5.47;;;2.40;;
55483;SDS011;41345;51.704;5.146;2023-05-20T11:27:13;6.13;;;2.72;;
55483;SDS011;41345;51.704;5.146;2023-05-20T11:32:14;6.70;;;2.70;;
55483;SDS011;41345;51.704;5.146;2023-05-20T11:37:14;6.93;;;2.73;;
55483;SDS011;41345;51.704;5.146;2023-05-20T11:42:14;5.97;;;2.55;;
55483;SDS011;41345;51.704;5.146;2023-05-20T11:47:15;6.07;;;2.60;;
55483;SDS011;41345;51.704;5.146;2023-05-20T11:52:15;5.37;;;2.37;;
55483;SDS011;41345;51.704;5.146;2023-05-20T11:57:16;5.45;;;2.70;;
55483;SDS011;41345;51.704;5.146;2023-05-20T12:02:17;5.53;;;2.47;;
55483;SDS011;41345;51.704;5.146;2023-05-20T12:07:18;5.33;;;2.53;;
55483;SDS011;41345;51.704;5.146;2023-05-20T12:12:18;6.80;;;2.70;;
55483;SDS011;41345;51.704;5.146;2023-05-20T12:17:19;4.80;;;2.45;;
55483;SDS011;41345;51.704;5.146;2023-05-20T12:22:19;8.73;;;2.67;;
55483;SDS011;41345;51.704;5.146;2023-05-20T12:27:20;5.28;;;2.70;;
55483;SDS011;41345;51.704;5.146;2023-05-20T12:32:20;4.90;;;2.37;;
55483;SDS011;41345;51.704;5.146;2023-05-20T12:37:22;5.45;;;2.28;;
55483;SDS011;41345;51.704;5.146;2023-05-20T12:42:22;5.78;;;2.45;;
55483;SDS011;41345;51.704;5.146;2023-05-20T12:47:22;4.15;;;1.90;;
55483;SDS011;41345;51.704;5.146;2023-05-20T12:52:23;6.87;;;2.33;;
55483;SDS011;41345;51.704;5.146;2023-05-20T12:57:23;8.70;;;3.17;;
55483;SDS011;41345;51.704;5.146;2023-05-20T13:02:24;7.55;;;2.53;;
55483;SDS011;41345;51.704;5.146;2023-05-20T13:07:24;7.75;;;2.35;;
55483;SDS011;41345;51.704;5.146;2023-05-20T13:12:25;6.38;;;2.30;;
55483;SDS011;41345;51.704;5.146;2023-05-20T13:17:26;4.20;;;1.80;;
55483;SDS011;41345;51.704;5.146;2023-05-20T13:22:26;5.13;;;2.15;;
55483;SDS011;41345;51.704;5.146;2023-05-20T13:27:27;6.07;;;2.50;;
55483;SDS011;41345;51.704;5.146;2023-05-20T13:32:27;5.10;;;2.20;;
55483;SDS011;41345;51.704;5.146;2023-05-20T13:37:27;6.95;;;2.30;;
55483;SDS011;41345;51.704;5.146;2023-05-20T13:42:28;4.55;;;1.75;;
55483;SDS011;41345;51.704;5.146;2023-05-20T13:47:29;4.95;;;2.30;;
55483;SDS011;41345;51.704;5.146;2023-05-20T13:52:29;3.97;;;2.20;;
55483;SDS011;41345;51.704;5.146;2023-05-20T13:57:30;4.97;;;2.30;;
55483;SDS011;41345;51.704;5.146;2023-05-20T14:02:30;7.33;;;3.27;;
55483;SDS011;41345;51.704;5.146;2023-05-20T14:07:30;7.13;;;2.40;;
55483;SDS011;41345;51.704;5.146;2023-05-20T14:12:31;6.03;;;2.67;;
55483;SDS011;41345;51.704;5.146;2023-05-20T14:17:31;5.70;;;2.03;;
55483;SDS011;41345;51.704;5.146;2023-05-20T14:22:31;5.40;;;2.20;;
55483;SDS011;41345;51.704;5.146;2023-05-20T14:27:31;6.57;;;2.50;;
55483;SDS011;41345;51.704;5.146;2023-05-20T14:32:32;5.53;;;1.85;;
55483;SDS011;41345;51.704;5.146;2023-05-20T14:37:32;4.00;;;1.80;;
55483;SDS011;41345;51.704;5.146;2023-05-20T14:42:32;4.70;;;1.90;;
55483;SDS011;41345;51.704;5.146;2023-05-20T14:47:33;5.20;;;1.77;;
55483;SDS011;41345;51.704;5.146;2023-05-20T14:52:33;3.17;;;1.70;;
55483;SDS011;41345;51.704;5.146;2023-05-20T14:57:33;7.10;;;2.35;;
55483;SDS011;41345;51.704;5.146;2023-05-20T15:02:33;3.80;;;1.90;;
55483;SDS011;41345;51.704;5.146;2023-05-20T15:07:34;5.10;;;2.20;;
55483;SDS011;41345;51.704;5.146;2023-05-20T15:12:34;6.28;;;1.90;;
55483;SDS011;41345;51.704;5.146;2023-05-20T15:17:34;5.82;;;2.15;;
55483;SDS011;41345;51.704;5.146;2023-05-20T15:22:35;6.65;;;2.17;;
55483;SDS011;41345;51.704;5.146;2023-05-20T15:27:35;4.93;;;1.83;;
55483;SDS011;41345;51.704;5.146;2023-05-20T15:32:36;7.80;;;2.33;;
55483;SDS011;41345;51.704;5.146;2023-05-20T15:37:36;4.82;;;2.13;;
55483;SDS011;41345;51.704;5.146;2023-05-20T15:42:36;8.13;;;2.10;;
55483;SDS011;41345;51.704;5.146;2023-05-20T15:47:37;5.33;;;2.10;;
55483;SDS011;41345;51.704;5.146;2023-05-20T15:52:38;4.03;;;2.10;;
55483;SDS011;41345;51.704;5.146;2023-05-20T15:57:38;6.07;;;2.60;;
55483;SDS011;41345;51.704;5.146;2023-05-20T16:02:38;7.18;;;2.97;;
55483;SDS011;41345;51.704;5.146;2023-05-20T16:07:40;4.72;;;1.90;;
55483;SDS011;41345;51.704;5.146;2023-05-20T16:12:41;5.63;;;1.90;;
55483;SDS011;41345;51.704;5.146;2023-05-20T16:17:41;4.80;;;2.25;;
55483;SDS011;41345;51.704;5.146;2023-05-20T16:22:41;3.73;;;1.90;;
55483;SDS011;41345;51.704;5.146;2023-05-20T16:27:42;6.13;;;1.80;;
55483;SDS011;41345;51.704;5.146;2023-05-20T16:32:42;4.00;;;1.87;;
55483;SDS011;41345;51.704;5.146;2023-05-20T16:37:43;4.10;;;1.77;;
55483;SDS011;41345;51.704;5.146;2023-05-20T16:42:43;6.55;;;1.80;;
55483;SDS011;41345;51.704;5.146;2023-05-20T16:47:44;3.97;;;1.75;;
55483;SDS011;41345;51.704;5.146;2023-05-20T16:52:44;4.50;;;1.80;;
55483;SDS011;41345;51.704;5.146;2023-05-20T16:57:45;5.38;;;1.50;;
55483;SDS011;41345;51.704;5.146;2023-05-20T17:02:46;7.65;;;1.70;;
55483;SDS011;41345;51.704;5.146;2023-05-20T17:07:47;4.97;;;1.58;;
55483;SDS011;41345;51.704;5.146;2023-05-20T17:12:48;4.20;;;2.03;;
55483;SDS011;41345;51.704;5.146;2023-05-20T17:17:48;4.80;;;1.80;;
55483;SDS011;41345;51.704;5.146;2023-05-20T17:22:49;4.15;;;1.70;;
55483;SDS011;41345;51.704;5.146;2023-05-20T17:27:50;3.17;;;1.52;;
55483;SDS011;41345;51.704;5.146;2023-05-20T17:32:50;7.30;;;1.80;;
55483;SDS011;41345;51.704;5.146;2023-05-20T17:37:51;4.95;;;1.90;;
55483;SDS011;41345;51.704;5.146;2023-05-20T17:42:52;5.38;;;1.80;;
55483;SDS011;41345;51.704;5.146;2023-05-20T17:47:53;5.32;;;1.80;;
55483;SDS011;41345;51.704;5.146;2023-05-20T17:52:53;6.13;;;1.60;;
55483;SDS011;41345;51.704;5.146;2023-05-20T17:57:53;5.35;;;1.60;;
55483;SDS011;41345;51.704;5.146;2023-05-20T18:02:54;6.13;;;1.80;;
55483;SDS011;41345;51.704;5.146;2023-05-20T18:07:57;3.13;;;1.60;;
55483;SDS011;41345;51.704;5.146;2023-05-20T18:12:57;12.90;;;2.40;;
55483;SDS011;41345;51.704;5.146;2023-05-20T18:17:57;5.65;;;1.80;;
55483;SDS011;41345;51.704;5.146;2023-05-20T18:22:58;4.70;;;1.73;;
55483;SDS011;41345;51.704;5.146;2023-05-20T18:27:58;8.27;;;2.00;;
55483;SDS011;41345;51.704;5.146;2023-05-20T18:32:59;8.32;;;1.95;;
55483;SDS011;41345;51.704;5.146;2023-05-20T18:37:59;3.55;;;1.77;;
55483;SDS011;41345;51.704;5.146;2023-05-20T18:42:59;5.20;;;1.60;;
55483;SDS011;41345;51.704;5.146;2023-05-20T18:48:00;4.22;;;1.80;;
55483;SDS011;41345;51.704;5.146;2023-05-20T18:53:00;4.27;;;1.70;;
55483;SDS011;41345;51.704;5.146;2023-05-20T18:58:01;5.90;;;1.90;;
55483;SDS011;41345;51.704;5.146;2023-05-20T19:03:01;5.50;;;1.80;;
55483;SDS011;41345;51.704;5.146;2023-05-20T19:08:02;4.07;;;1.90;;
55483;SDS011;41345;51.704;5.146;2023-05-20T19:13:04;5.90;;;1.83;;
55483;SDS011;41345;51.704;5.146;2023-05-20T19:18:04;4.28;;;2.00;;
55483;SDS011;41345;51.704;5.146;2023-05-20T19:23:05;4.28;;;2.20;;
55483;SDS011;41345;51.704;5.146;2023-05-20T19:28:05;5.70;;;2.30;;
55483;SDS011;41345;51.704;5.146;2023-05-20T19:33:06;5.28;;;1.88;;
55483;SDS011;41345;51.704;5.146;2023-05-20T19:38:06;5.82;;;2.15;;
55483;SDS011;41345;51.704;5.146;2023-05-20T19:43:06;5.93;;;2.13;;
55483;SDS011;41345;51.704;5.146;2023-05-20T19:48:07;7.35;;;2.00;;
55483;SDS011;41345;51.704;5.146;2023-05-20T19:53:07;5.40;;;2.25;;
55483;SDS011;41345;51.704;5.146;2023-05-20T19:58:08;7.50;;;2.23;;
55483;SDS011;41345;51.704;5.146;2023-05-20T20:03:08;5.95;;;2.17;;
55483;SDS011;41345;51.704;5.146;2023-05-20T20:08:08;4.80;;;2.07;;
55483;SDS011;41345;51.704;5.146;2023-05-20T20:13:09;4.25;;;2.10;;
55483;SDS011;41345;51.704;5.146;2023-05-20T20:18:10;4.88;;;2.25;;
55483;SDS011;41345;51.704;5.146;2023-05-20T20:23:10;10.25;;;2.30;;
55483;SDS011;41345;51.704;5.146;2023-05-20T20:28:10;10.02;;;2.50;;
55483;SDS011;41345;51.704;5.146;2023-05-20T20:33:11;7.83;;;3.60;;
55483;SDS011;41345;51.704;5.146;2023-05-20T20:38:12;6.00;;;2.63;;
55483;SDS011;41345;51.704;5.146;2023-05-20T20:43:12;8.70;;;3.50;;
55483;SDS011;41345;51.704;5.146;2023-05-20T20:53:17;6.15;;;2.90;;
55483;SDS011;41345;51.704;5.146;2023-05-20T20:58:18;5.53;;;2.67;;
55483;SDS011;41345;51.704;5.146;2023-05-20T21:03:18;6.97;;;3.27;;
55483;SDS011;41345;51.704;5.146;2023-05-20T21:08:22;5.75;;;3.03;;
55483;SDS011;41345;51.704;5.146;2023-05-20T21:13:26;6.65;;;3.03;;
55483;SDS011;41345;51.704;5.146;2023-05-20T21:18:27;5.20;;;3.05;;
55483;SDS011;41345;51.704;5.146;2023-05-20T21:23:27;8.55;;;3.38;;
55483;SDS011;41345;51.704;5.146;2023-05-20T21:28:27;8.02;;;3.58;;
55483;SDS011;41345;51.704;5.146;2023-05-20T21:33:28;6.55;;;2.97;;
55483;SDS011;41345;51.704;5.146;2023-05-20T21:38:28;5.87;;;2.73;;
55483;SDS011;41345;51.704;5.146;2023-05-20T21:43:29;9.07;;;3.10;;
55483;SDS011;41345;51.704;5.146;2023-05-20T21:48:29;7.57;;;3.05;;
55483;SDS011;41345;51.704;5.146;2023-05-20T21:53:30;6.43;;;3.33;;
55483;SDS011;41345;51.704;5.146;2023-05-20T21:58:30;5.53;;;3.15;;
55483;SDS011;41345;51.704;5.146;2023-05-20T22:03:30;6.93;;;3.22;;
55483;SDS011;41345;51.704;5.146;2023-05-20T22:08:31;6.00;;;3.20;;
55483;SDS011;41345;51.704;5.146;2023-05-20T22:13:34;6.13;;;3.85;;
55483;SDS011;41345;51.704;5.146;2023-05-20T22:18:35;8.82;;;3.67;;
55483;SDS011;41345;51.704;5.146;2023-05-20T22:23:35;6.70;;;3.37;;
55483;SDS011;41345;51.704;5.146;2023-05-20T22:28:35;6.75;;;3.03;;
55483;SDS011;41345;51.704;5.146;2023-05-20T22:33:36;6.47;;;3.72;;
55483;SDS011;41345;51.704;5.146;2023-05-20T22:38:36;7.70;;;4.03;;
55483;SDS011;41345;51.704;5.146;2023-05-20T22:43:36;6.47;;;3.80;;
55483;SDS011;41345;51.704;5.146;2023-05-20T22:48:37;6.13;;;3.53;;
55483;SDS011;41345;51.704;5.146;2023-05-20T22:53:37;6.87;;;3.80;;
55483;SDS011;41345;51.704;5.146;2023-05-20T22:58:37;5.22;;;3.83;;
55483;SDS011;41345;51.704;5.146;2023-05-20T23:03:38;9.07;;;4.05;;
55483;SDS011;41345;51.704;5.146;2023-05-20T23:08:39;11.77;;;5.10;;
55483;SDS011;41345;51.704;5.146;2023-05-20T23:13:43;6.50;;;5.40;;
55483;SDS011;41345;51.704;5.146;2023-05-20T23:18:43;6.40;;;4.03;;
55483;SDS011;41345;51.704;5.146;2023-05-20T23:23:45;8.23;;;5.85;;
55483;SDS011;41345;51.704;5.146;2023-05-20T23:28:45;6.90;;;4.72;;
55483;SDS011;41345;51.704;5.146;2023-05-20T23:33:47;9.00;;;6.35;;
55483;SDS011;41345;51.704;5.146;2023-05-20T23:38:47;12.70;;;8.57;;
55483;SDS011;41345;51.704;5.146;2023-05-20T23:43:47;8.30;;;6.90;;
55483;SDS011;41345;51.704;5.146;2023-05-20T23:48:48;16.00;;;14.90;;
55483;SDS011;41345;51.704;5.146;2023-05-20T23:53:48;15.57;;;14.27;;
55483;SDS011;41345;51.704;5.146;2023-05-20T23:58:49;14.80;;;13.27;;
